sensor_id;sensor_type;location;lat;lon;timestamp;temperature;humidity
23703;DHT22;12030;50.376;8.762;2023-06-26T00:02:16;16.70;99.90
23703;DHT22;12030;50.376;8.762;2023-06-26T00:04:42;16.70;99.90
23703;DHT22;12030;50.376;8.762;2023-06-26T00:07:08;16.70;99.90
23703;DHT22;12030;50.376;8.762;2023-06-26T00:09:34;16.70;99.90
23703;DHT22;12030;50.376;8.762;2023-06-26T00:11:59;16.40;99.90
23703;DHT22;12030;50.376;8.762;2023-06-26T00:14:25;16.60;99.90
23703;DHT22;12030;50.376;8.762;2023-06-26T00:16:51;16.60;99.90
23703;DHT22;12030;50.376;8.762;2023-06-26T00:19:17;16.50;99.90
23703;DHT22;12030;50.376;8.762;2023-06-26T00:21:42;16.40;99.90
23703;DHT22;12030;50.376;8.762;2023-06-26T00:24:14;16.40;99.90
23703;DHT22;12030;50.376;8.762;2023-06-26T00:26:40;16.30;99.90
23703;DHT22;12030;50.376;8.762;2023-06-26T00:29:05;16.30;99.90
23703;DHT22;12030;50.376;8.762;2023-06-26T00:31:31;16.40;99.90
23703;DHT22;12030;50.376;8.762;2023-06-26T00:33:56;16.10;99.90
23703;DHT22;12030;50.376;8.762;2023-06-26T00:36:22;16.10;99.90
23703;DHT22;12030;50.376;8.762;2023-06-26T00:38:52;16.00;99.90
23703;DHT22;12030;50.376;8.762;2023-06-26T00:41:17;16.00;99.90
23703;DHT22;12030;50.376;8.762;2023-06-26T00:43:43;16.00;99.90
23703;DHT22;12030;50.376;8.762;2023-06-26T00:46:10;16.00;99.90
23703;DHT22;12030;50.376;8.762;2023-06-26T00:48:36;16.00;99.90
23703;DHT22;12030;50.376;8.762;2023-06-26T00:51:02;16.00;99.90
23703;DHT22;12030;50.376;8.762;2023-06-26T00:53:28;15.80;99.90
23703;DHT22;12030;50.376;8.762;2023-06-26T00:55:54;15.80;99.90
23703;DHT22;12030;50.376;8.762;2023-06-26T00:58:22;15.80;99.90
23703;DHT22;12030;50.376;8.762;2023-06-26T01:00:49;15.80;99.90
23703;DHT22;12030;50.376;8.762;2023-06-26T01:03:14;15.80;99.90
23703;DHT22;12030;50.376;8.762;2023-06-26T01:05:40;15.70;99.90
23703;DHT22;12030;50.376;8.762;2023-06-26T01:08:06;15.70;99.90
23703;DHT22;12030;50.376;8.762;2023-06-26T01:10:32;15.60;99.90
23703;DHT22;12030;50.376;8.762;2023-06-26T01:12:58;15.70;99.90
23703;DHT22;12030;50.376;8.762;2023-06-26T01:15:23;15.60;99.90
23703;DHT22;12030;50.376;8.762;2023-06-26T01:17:50;15.50;99.90
23703;DHT22;12030;50.376;8.762;2023-06-26T01:20:17;15.50;99.90
23703;DHT22;12030;50.376;8.762;2023-06-26T01:23:10;15.50;99.90
23703;DHT22;12030;50.376;8.762;2023-06-26T01:28:25;15.40;99.90
23703;DHT22;12030;50.376;8.762;2023-06-26T01:30:52;15.50;99.90
23703;DHT22;12030;50.376;8.762;2023-06-26T01:33:18;15.50;99.90
23703;DHT22;12030;50.376;8.762;2023-06-26T01:35:45;15.40;99.90
23703;DHT22;12030;50.376;8.762;2023-06-26T01:38:18;15.30;99.90
23703;DHT22;12030;50.376;8.762;2023-06-26T01:40:44;15.30;99.90
23703;DHT22;12030;50.376;8.762;2023-06-26T01:43:36;15.30;99.90
23703;DHT22;12030;50.376;8.762;2023-06-26T01:46:10;15.30;99.90
23703;DHT22;12030;50.376;8.762;2023-06-26T01:48:54;15.30;99.90
23703;DHT22;12030;50.376;8.762;2023-06-26T01:51:24;15.20;99.90
23703;DHT22;12030;50.376;8.762;2023-06-26T01:53:54;15.20;99.90
23703;DHT22;12030;50.376;8.762;2023-06-26T01:56:23;15.20;99.90
23703;DHT22;12030;50.376;8.762;2023-06-26T01:58:50;15.20;99.90
23703;DHT22;12030;50.376;8.762;2023-06-26T02:01:20;15.20;99.90
23703;DHT22;12030;50.376;8.762;2023-06-26T02:03:47;15.20;99.90
23703;DHT22;12030;50.376;8.762;2023-06-26T02:06:12;15.00;99.90
23703;DHT22;12030;50.376;8.762;2023-06-26T02:08:38;15.10;99.90
23703;DHT22;12030;50.376;8.762;2023-06-26T02:11:03;15.10;99.90
23703;DHT22;12030;50.376;8.762;2023-06-26T02:13:28;15.00;99.90
23703;DHT22;12030;50.376;8.762;2023-06-26T02:15:54;15.00;99.90
23703;DHT22;12030;50.376;8.762;2023-06-26T02:18:20;15.00;99.90
23703;DHT22;12030;50.376;8.762;2023-06-26T02:20:48;15.00;99.90
23703;DHT22;12030;50.376;8.762;2023-06-26T02:23:13;15.00;99.90
23703;DHT22;12030;50.376;8.762;2023-06-26T02:25:39;15.00;99.90
23703;DHT22;12030;50.376;8.762;2023-06-26T02:28:04;15.00;99.90
23703;DHT22;12030;50.376;8.762;2023-06-26T02:30:30;14.90;99.90
23703;DHT22;12030;50.376;8.762;2023-06-26T02:32:55;14.90;99.90
23703;DHT22;12030;50.376;8.762;2023-06-26T02:35:21;14.90;99.90
23703;DHT22;12030;50.376;8.762;2023-06-26T02:37:46;14.90;99.90
23703;DHT22;12030;50.376;8.762;2023-06-26T02:40:12;14.90;99.90
23703;DHT22;12030;50.376;8.762;2023-06-26T02:42:37;14.90;99.90
23703;DHT22;12030;50.376;8.762;2023-06-26T02:45:03;14.70;99.90
23703;DHT22;12030;50.376;8.762;2023-06-26T02:47:29;14.70;99.90
23703;DHT22;12030;50.376;8.762;2023-06-26T02:49:54;14.70;99.90
23703;DHT22;12030;50.376;8.762;2023-06-26T02:52:20;14.70;99.90
23703;DHT22;12030;50.376;8.762;2023-06-26T02:54:45;14.70;99.90
23703;DHT22;12030;50.376;8.762;2023-06-26T02:57:11;14.70;99.90
23703;DHT22;12030;50.376;8.762;2023-06-26T02:59:40;14.50;99.90
23703;DHT22;12030;50.376;8.762;2023-06-26T03:02:05;14.50;99.90
23703;DHT22;12030;50.376;8.762;2023-06-26T03:04:31;14.50;99.90
23703;DHT22;12030;50.376;8.762;2023-06-26T03:06:56;14.50;99.90
23703;DHT22;12030;50.376;8.762;2023-06-26T03:09:22;14.50;99.90
23703;DHT22;12030;50.376;8.762;2023-06-26T03:11:47;14.60;99.90
23703;DHT22;12030;50.376;8.762;2023-06-26T03:14:13;14.50;99.90
23703;DHT22;12030;50.376;8.762;2023-06-26T03:16:39;14.50;99.90
23703;DHT22;12030;50.376;8.762;2023-06-26T03:19:05;14.50;99.90
23703;DHT22;12030;50.376;8.762;2023-06-26T03:21:32;14.50;99.90
23703;DHT22;12030;50.376;8.762;2023-06-26T03:23:57;14.50;99.90
23703;DHT22;12030;50.376;8.762;2023-06-26T03:26:23;14.50;99.90
23703;DHT22;12030;50.376;8.762;2023-06-26T03:28:53;14.50;99.90
23703;DHT22;12030;50.376;8.762;2023-06-26T03:31:19;14.50;99.90
23703;DHT22;12030;50.376;8.762;2023-06-26T03:33:44;14.50;99.90
23703;DHT22;12030;50.376;8.762;2023-06-26T03:36:10;14.50;99.90
23703;DHT22;12030;50.376;8.762;2023-06-26T03:38:35;14.50;99.90
23703;DHT22;12030;50.376;8.762;2023-06-26T03:41:01;14.50;99.90
23703;DHT22;12030;50.376;8.762;2023-06-26T03:43:26;14.50;99.90
23703;DHT22;12030;50.376;8.762;2023-06-26T03:45:52;14.50;99.90
23703;DHT22;12030;50.376;8.762;2023-06-26T03:48:17;14.40;99.90
23703;DHT22;12030;50.376;8.762;2023-06-26T03:50:43;14.40;99.90
23703;DHT22;12030;50.376;8.762;2023-06-26T03:53:09;14.50;99.90
23703;DHT22;12030;50.376;8.762;2023-06-26T03:55:34;14.50;99.90
23703;DHT22;12030;50.376;8.762;2023-06-26T03:58:00;14.60;99.90
23703;DHT22;12030;50.376;8.762;2023-06-26T04:00:25;14.50;99.90
23703;DHT22;12030;50.376;8.762;2023-06-26T04:02:51;14.60;99.90
23703;DHT22;12030;50.376;8.762;2023-06-26T04:05:17;14.50;99.90
23703;DHT22;12030;50.376;8.762;2023-06-26T04:07:42;14.50;99.90
23703;DHT22;12030;50.376;8.762;2023-06-26T04:10:08;14.60;99.90
23703;DHT22;12030;50.376;8.762;2023-06-26T04:12:34;14.60;99.90
23703;DHT22;12030;50.376;8.762;2023-06-26T04:15:00;14.70;99.90
23703;DHT22;12030;50.376;8.762;2023-06-26T04:17:25;14.70;99.90
23703;DHT22;12030;50.376;8.762;2023-06-26T04:19:51;14.70;99.90
23703;DHT22;12030;50.376;8.762;2023-06-26T04:22:16;14.60;99.90
23703;DHT22;12030;50.376;8.762;2023-06-26T04:24:42;14.70;99.90
23703;DHT22;12030;50.376;8.762;2023-06-26T04:27:08;14.80;99.90
23703;DHT22;12030;50.376;8.762;2023-06-26T04:29:34;14.80;99.90
23703;DHT22;12030;50.376;8.762;2023-06-26T04:32:00;14.90;99.90
23703;DHT22;12030;50.376;8.762;2023-06-26T04:34:26;14.90;99.90
23703;DHT22;12030;50.376;8.762;2023-06-26T04:36:52;14.90;99.90
23703;DHT22;12030;50.376;8.762;2023-06-26T04:39:17;15.00;99.90
23703;DHT22;12030;50.376;8.762;2023-06-26T04:41:44;15.00;99.90
23703;DHT22;12030;50.376;8.762;2023-06-26T04:44:10;15.00;99.90
23703;DHT22;12030;50.376;8.762;2023-06-26T04:46:37;15.10;99.90
23703;DHT22;12030;50.376;8.762;2023-06-26T04:49:02;15.20;99.90
23703;DHT22;12030;50.376;8.762;2023-06-26T04:51:28;15.30;99.90
23703;DHT22;12030;50.376;8.762;2023-06-26T04:53:54;15.40;99.90
23703;DHT22;12030;50.376;8.762;2023-06-26T04:56:20;15.40;99.90
23703;DHT22;12030;50.376;8.762;2023-06-26T04:58:45;15.50;99.90
23703;DHT22;12030;50.376;8.762;2023-06-26T05:01:11;15.70;99.90
23703;DHT22;12030;50.376;8.762;2023-06-26T05:03:39;15.80;99.90
23703;DHT22;12030;50.376;8.762;2023-06-26T05:06:04;15.90;99.90
23703;DHT22;12030;50.376;8.762;2023-06-26T05:08:30;16.00;99.90
23703;DHT22;12030;50.376;8.762;2023-06-26T05:10:55;16.10;99.90
23703;DHT22;12030;50.376;8.762;2023-06-26T05:13:26;16.20;99.90
23703;DHT22;12030;50.376;8.762;2023-06-26T05:15:52;16.30;99.90
23703;DHT22;12030;50.376;8.762;2023-06-26T05:18:18;16.50;99.90
23703;DHT22;12030;50.376;8.762;2023-06-26T05:20:44;16.60;99.90
23703;DHT22;12030;50.376;8.762;2023-06-26T05:23:13;16.80;99.90
23703;DHT22;12030;50.376;8.762;2023-06-26T05:25:41;16.90;99.90
23703;DHT22;12030;50.376;8.762;2023-06-26T05:28:07;17.00;99.90
23703;DHT22;12030;50.376;8.762;2023-06-26T05:30:35;17.20;99.90
23703;DHT22;12030;50.376;8.762;2023-06-26T05:33:02;17.40;99.90
23703;DHT22;12030;50.376;8.762;2023-06-26T05:35:31;17.50;99.90
23703;DHT22;12030;50.376;8.762;2023-06-26T05:37:57;17.70;99.90
23703;DHT22;12030;50.376;8.762;2023-06-26T05:40:23;17.70;99.90
23703;DHT22;12030;50.376;8.762;2023-06-26T05:42:49;17.90;99.90
23703;DHT22;12030;50.376;8.762;2023-06-26T05:45:15;18.10;99.90
23703;DHT22;12030;50.376;8.762;2023-06-26T05:47:41;18.20;99.90
23703;DHT22;12030;50.376;8.762;2023-06-26T05:50:09;18.40;99.90
23703;DHT22;12030;50.376;8.762;2023-06-26T05:52:35;18.40;99.90
23703;DHT22;12030;50.376;8.762;2023-06-26T05:55:01;18.60;99.90
23703;DHT22;12030;50.376;8.762;2023-06-26T05:57:28;18.80;99.90
23703;DHT22;12030;50.376;8.762;2023-06-26T05:59:54;18.90;99.90
23703;DHT22;12030;50.376;8.762;2023-06-26T06:02:20;19.10;99.90
23703;DHT22;12030;50.376;8.762;2023-06-26T06:04:45;19.10;99.90
23703;DHT22;12030;50.376;8.762;2023-06-26T06:07:11;19.30;99.90
23703;DHT22;12030;50.376;8.762;2023-06-26T06:09:37;19.40;99.90
23703;DHT22;12030;50.376;8.762;2023-06-26T06:12:04;19.50;99.90
23703;DHT22;12030;50.376;8.762;2023-06-26T06:14:30;19.60;99.90
23703;DHT22;12030;50.376;8.762;2023-06-26T06:16:55;19.70;99.90
23703;DHT22;12030;50.376;8.762;2023-06-26T06:19:22;19.80;99.90
23703;DHT22;12030;50.376;8.762;2023-06-26T06:21:47;20.00;99.90
23703;DHT22;12030;50.376;8.762;2023-06-26T06:24:13;20.00;99.90
23703;DHT22;12030;50.376;8.762;2023-06-26T06:26:39;20.10;99.90
23703;DHT22;12030;50.376;8.762;2023-06-26T06:29:04;20.30;99.90
23703;DHT22;12030;50.376;8.762;2023-06-26T06:31:31;20.30;99.90
23703;DHT22;12030;50.376;8.762;2023-06-26T06:33:56;20.50;99.90
23703;DHT22;12030;50.376;8.762;2023-06-26T06:36:22;20.60;99.90
23703;DHT22;12030;50.376;8.762;2023-06-26T06:38:48;20.70;99.90
23703;DHT22;12030;50.376;8.762;2023-06-26T06:41:13;20.80;99.90
23703;DHT22;12030;50.376;8.762;2023-06-26T06:43:39;20.90;99.90
23703;DHT22;12030;50.376;8.762;2023-06-26T06:46:05;21.00;99.90
23703;DHT22;12030;50.376;8.762;2023-06-26T06:48:31;21.20;99.90
23703;DHT22;12030;50.376;8.762;2023-06-26T06:50:57;21.20;99.90
23703;DHT22;12030;50.376;8.762;2023-06-26T06:53:22;21.40;99.90
23703;DHT22;12030;50.376;8.762;2023-06-26T06:55:49;21.60;99.90
23703;DHT22;12030;50.376;8.762;2023-06-26T06:58:14;21.80;99.90
23703;DHT22;12030;50.376;8.762;2023-06-26T07:00:42;21.80;99.90
23703;DHT22;12030;50.376;8.762;2023-06-26T07:03:08;22.00;99.90
23703;DHT22;12030;50.376;8.762;2023-06-26T07:05:33;22.10;99.90
23703;DHT22;12030;50.376;8.762;2023-06-26T07:07:59;22.30;99.90
23703;DHT22;12030;50.376;8.762;2023-06-26T07:10:24;22.30;99.90
23703;DHT22;12030;50.376;8.762;2023-06-26T07:12:50;22.50;99.90
23703;DHT22;12030;50.376;8.762;2023-06-26T07:15:16;22.60;99.90
23703;DHT22;12030;50.376;8.762;2023-06-26T07:17:42;22.70;99.90
23703;DHT22;12030;50.376;8.762;2023-06-26T07:20:07;22.90;99.90
23703;DHT22;12030;50.376;8.762;2023-06-26T07:22:34;22.90;99.90
23703;DHT22;12030;50.376;8.762;2023-06-26T07:24:59;23.00;99.90
23703;DHT22;12030;50.376;8.762;2023-06-26T07:27:25;23.20;99.90
23703;DHT22;12030;50.376;8.762;2023-06-26T07:29:51;23.30;99.90
23703;DHT22;12030;50.376;8.762;2023-06-26T07:32:16;23.50;99.90
23703;DHT22;12030;50.376;8.762;2023-06-26T07:34:42;23.60;99.90
23703;DHT22;12030;50.376;8.762;2023-06-26T07:37:07;23.70;99.90
23703;DHT22;12030;50.376;8.762;2023-06-26T07:39:33;23.90;99.90
23703;DHT22;12030;50.376;8.762;2023-06-26T07:41:58;24.10;99.90
23703;DHT22;12030;50.376;8.762;2023-06-26T07:44:27;24.20;99.90
23703;DHT22;12030;50.376;8.762;2023-06-26T07:46:52;24.30;99.90
23703;DHT22;12030;50.376;8.762;2023-06-26T07:49:18;24.50;99.90
23703;DHT22;12030;50.376;8.762;2023-06-26T07:51:44;24.70;99.90
23703;DHT22;12030;50.376;8.762;2023-06-26T07:54:09;24.90;99.90
23703;DHT22;12030;50.376;8.762;2023-06-26T07:56:52;25.10;99.90
23703;DHT22;12030;50.376;8.762;2023-06-26T07:59:19;25.10;99.90
23703;DHT22;12030;50.376;8.762;2023-06-26T08:01:46;25.10;99.90
23703;DHT22;12030;50.376;8.762;2023-06-26T08:04:11;25.10;99.90
23703;DHT22;12030;50.376;8.762;2023-06-26T08:06:37;25.20;99.90
23703;DHT22;12030;50.376;8.762;2023-06-26T08:09:18;25.30;99.90
23703;DHT22;12030;50.376;8.762;2023-06-26T08:11:44;25.50;99.90
23703;DHT22;12030;50.376;8.762;2023-06-26T08:14:10;25.60;99.90
23703;DHT22;12030;50.376;8.762;2023-06-26T08:16:38;26.00;99.90
23703;DHT22;12030;50.376;8.762;2023-06-26T08:19:03;26.00;99.90
23703;DHT22;12030;50.376;8.762;2023-06-26T08:21:29;26.20;99.90
23703;DHT22;12030;50.376;8.762;2023-06-26T08:23:54;26.20;99.90
23703;DHT22;12030;50.376;8.762;2023-06-26T08:26:20;26.20;99.90
23703;DHT22;12030;50.376;8.762;2023-06-26T08:28:45;26.30;99.90
23703;DHT22;12030;50.376;8.762;2023-06-26T08:31:11;26.60;99.90
23703;DHT22;12030;50.376;8.762;2023-06-26T08:33:37;26.80;99.90
23703;DHT22;12030;50.376;8.762;2023-06-26T08:36:02;26.70;99.90
23703;DHT22;12030;50.376;8.762;2023-06-26T08:38:28;26.80;99.90
23703;DHT22;12030;50.376;8.762;2023-06-26T08:40:53;26.80;99.90
23703;DHT22;12030;50.376;8.762;2023-06-26T08:43:19;26.60;99.90
23703;DHT22;12030;50.376;8.762;2023-06-26T08:45:45;26.50;99.90
23703;DHT22;12030;50.376;8.762;2023-06-26T08:48:12;26.50;99.90
23703;DHT22;12030;50.376;8.762;2023-06-26T08:50:38;26.60;99.90
23703;DHT22;12030;50.376;8.762;2023-06-26T08:55:35;26.90;99.90
23703;DHT22;12030;50.376;8.762;2023-06-26T08:58:01;27.00;99.00
23703;DHT22;12030;50.376;8.762;2023-06-26T09:00:27;27.00;96.10
23703;DHT22;12030;50.376;8.762;2023-06-26T09:02:52;27.00;95.30
23703;DHT22;12030;50.376;8.762;2023-06-26T09:05:18;27.20;95.60
23703;DHT22;12030;50.376;8.762;2023-06-26T09:07:44;27.10;95.30
23703;DHT22;12030;50.376;8.762;2023-06-26T09:10:10;27.00;94.90
23703;DHT22;12030;50.376;8.762;2023-06-26T09:12:37;27.00;94.70
23703;DHT22;12030;50.376;8.762;2023-06-26T09:15:04;26.80;95.60
23703;DHT22;12030;50.376;8.762;2023-06-26T09:17:32;26.70;96.00
23703;DHT22;12030;50.376;8.762;2023-06-26T09:19:58;26.70;96.10
23703;DHT22;12030;50.376;8.762;2023-06-26T09:22:24;26.60;96.40
23703;DHT22;12030;50.376;8.762;2023-06-26T09:24:50;26.70;97.30
23703;DHT22;12030;50.376;8.762;2023-06-26T09:27:16;26.70;96.30
23703;DHT22;12030;50.376;8.762;2023-06-26T09:29:44;26.70;97.80
23703;DHT22;12030;50.376;8.762;2023-06-26T09:32:10;26.90;98.40
23703;DHT22;12030;50.376;8.762;2023-06-26T09:34:37;27.00;98.50
23703;DHT22;12030;50.376;8.762;2023-06-26T09:37:06;27.00;98.60
23703;DHT22;12030;50.376;8.762;2023-06-26T09:39:32;27.00;98.70
23703;DHT22;12030;50.376;8.762;2023-06-26T09:41:58;27.20;98.60
23703;DHT22;12030;50.376;8.762;2023-06-26T09:44:24;27.50;98.30
23703;DHT22;12030;50.376;8.762;2023-06-26T09:46:50;27.80;98.50
23703;DHT22;12030;50.376;8.762;2023-06-26T09:49:15;27.90;98.40
23703;DHT22;12030;50.376;8.762;2023-06-26T09:51:42;28.00;97.60
23703;DHT22;12030;50.376;8.762;2023-06-26T09:54:08;27.80;97.60
23703;DHT22;12030;50.376;8.762;2023-06-26T09:56:35;27.90;97.60
23703;DHT22;12030;50.376;8.762;2023-06-26T09:59:02;27.80;96.50
23703;DHT22;12030;50.376;8.762;2023-06-26T10:01:29;27.80;96.80
23703;DHT22;12030;50.376;8.762;2023-06-26T10:03:55;27.80;97.20
23703;DHT22;12030;50.376;8.762;2023-06-26T10:06:38;27.80;97.20
23703;DHT22;12030;50.376;8.762;2023-06-26T10:09:06;27.60;96.80
23703;DHT22;12030;50.376;8.762;2023-06-26T10:11:56;27.40;96.30
23703;DHT22;12030;50.376;8.762;2023-06-26T10:14:26;27.10;96.10
23703;DHT22;12030;50.376;8.762;2023-06-26T10:16:52;27.10;95.90
23703;DHT22;12030;50.376;8.762;2023-06-26T10:19:21;27.00;95.80
23703;DHT22;12030;50.376;8.762;2023-06-26T10:21:54;26.90;95.90
23703;DHT22;12030;50.376;8.762;2023-06-26T10:24:22;26.90;95.70
23703;DHT22;12030;50.376;8.762;2023-06-26T10:26:52;26.80;95.90
23703;DHT22;12030;50.376;8.762;2023-06-26T10:29:20;26.90;96.40
23703;DHT22;12030;50.376;8.762;2023-06-26T10:31:51;27.00;95.60
23703;DHT22;12030;50.376;8.762;2023-06-26T10:34:18;27.00;94.80
23703;DHT22;12030;50.376;8.762;2023-06-26T10:36:44;26.90;95.40
23703;DHT22;12030;50.376;8.762;2023-06-26T10:39:09;26.80;95.90
23703;DHT22;12030;50.376;8.762;2023-06-26T10:41:39;26.90;96.30
23703;DHT22;12030;50.376;8.762;2023-06-26T10:44:09;27.20;97.00
23703;DHT22;12030;50.376;8.762;2023-06-26T10:49:18;27.30;95.20
23703;DHT22;12030;50.376;8.762;2023-06-26T10:51:48;27.40;95.50
23703;DHT22;12030;50.376;8.762;2023-06-26T10:54:18;27.70;96.30
23703;DHT22;12030;50.376;8.762;2023-06-26T10:59:18;27.90;94.90
23703;DHT22;12030;50.376;8.762;2023-06-26T11:01:45;27.80;95.70
23703;DHT22;12030;50.376;8.762;2023-06-26T11:04:12;27.70;95.40
23703;DHT22;12030;50.376;8.762;2023-06-26T11:06:40;27.90;95.90
23703;DHT22;12030;50.376;8.762;2023-06-26T11:14:26;28.30;94.80
23703;DHT22;12030;50.376;8.762;2023-06-26T11:16:52;28.40;93.90
23703;DHT22;12030;50.376;8.762;2023-06-26T11:19:20;28.40;94.40
23703;DHT22;12030;50.376;8.762;2023-06-26T11:21:46;28.50;94.10
23703;DHT22;12030;50.376;8.762;2023-06-26T11:24:13;28.50;94.20
23703;DHT22;12030;50.376;8.762;2023-06-26T11:26:39;28.60;94.20
23703;DHT22;12030;50.376;8.762;2023-06-26T11:29:05;28.70;95.00
23703;DHT22;12030;50.376;8.762;2023-06-26T11:31:32;28.70;94.30
23703;DHT22;12030;50.376;8.762;2023-06-26T11:34:06;28.60;93.30
23703;DHT22;12030;50.376;8.762;2023-06-26T11:36:33;28.30;93.10
23703;DHT22;12030;50.376;8.762;2023-06-26T11:39:03;28.40;93.50
23703;DHT22;12030;50.376;8.762;2023-06-26T11:41:31;28.30;92.90
23703;DHT22;12030;50.376;8.762;2023-06-26T11:44:07;28.50;93.70
23703;DHT22;12030;50.376;8.762;2023-06-26T11:46:34;28.50;93.10
23703;DHT22;12030;50.376;8.762;2023-06-26T11:49:03;28.50;93.10
23703;DHT22;12030;50.376;8.762;2023-06-26T11:51:29;28.80;92.60
23703;DHT22;12030;50.376;8.762;2023-06-26T11:53:55;28.60;92.10
23703;DHT22;12030;50.376;8.762;2023-06-26T11:56:21;28.60;92.50
23703;DHT22;12030;50.376;8.762;2023-06-26T12:01:29;28.90;92.50
23703;DHT22;12030;50.376;8.762;2023-06-26T12:03:59;29.00;91.70
23703;DHT22;12030;50.376;8.762;2023-06-26T12:06:26;29.20;91.70
23703;DHT22;12030;50.376;8.762;2023-06-26T12:08:52;29.30;91.30
23703;DHT22;12030;50.376;8.762;2023-06-26T12:11:18;29.40;92.20
23703;DHT22;12030;50.376;8.762;2023-06-26T12:13:45;29.10;91.50
23703;DHT22;12030;50.376;8.762;2023-06-26T12:16:12;28.50;91.20
23703;DHT22;12030;50.376;8.762;2023-06-26T12:18:39;28.20;92.30
23703;DHT22;12030;50.376;8.762;2023-06-26T12:21:05;28.40;92.70
23703;DHT22;12030;50.376;8.762;2023-06-26T12:23:38;28.40;92.70
23703;DHT22;12030;50.376;8.762;2023-06-26T12:26:18;29.10;92.20
23703;DHT22;12030;50.376;8.762;2023-06-26T12:28:44;29.20;91.60
23703;DHT22;12030;50.376;8.762;2023-06-26T12:31:19;29.20;92.00
23703;DHT22;12030;50.376;8.762;2023-06-26T12:33:45;29.10;91.40
23703;DHT22;12030;50.376;8.762;2023-06-26T12:36:14;29.20;90.80
23703;DHT22;12030;50.376;8.762;2023-06-26T12:38:40;28.90;90.80
23703;DHT22;12030;50.376;8.762;2023-06-26T12:41:12;28.80;90.70
23703;DHT22;12030;50.376;8.762;2023-06-26T12:43:39;28.80;90.90
23703;DHT22;12030;50.376;8.762;2023-06-26T12:46:05;28.90;91.40
23703;DHT22;12030;50.376;8.762;2023-06-26T12:48:42;28.80;90.80
23703;DHT22;12030;50.376;8.762;2023-06-26T12:51:14;28.90;91.40
23703;DHT22;12030;50.376;8.762;2023-06-26T12:53:40;28.20;91.40
23703;DHT22;12030;50.376;8.762;2023-06-26T12:56:07;28.20;92.10
23703;DHT22;12030;50.376;8.762;2023-06-26T12:58:33;28.40;92.20
23703;DHT22;12030;50.376;8.762;2023-06-26T13:00:59;28.00;91.30
23703;DHT22;12030;50.376;8.762;2023-06-26T13:03:25;29.30;91.10
23703;DHT22;12030;50.376;8.762;2023-06-26T13:05:51;29.50;91.40
23703;DHT22;12030;50.376;8.762;2023-06-26T13:08:16;29.80;90.10
23703;DHT22;12030;50.376;8.762;2023-06-26T13:10:45;29.60;89.00
23703;DHT22;12030;50.376;8.762;2023-06-26T13:13:11;29.20;90.00
23703;DHT22;12030;50.376;8.762;2023-06-26T13:15:37;28.70;89.70
23703;DHT22;12030;50.376;8.762;2023-06-26T13:18:02;28.60;90.60
23703;DHT22;12030;50.376;8.762;2023-06-26T13:20:28;28.90;91.10
23703;DHT22;12030;50.376;8.762;2023-06-26T13:22:54;28.70;90.80
23703;DHT22;12030;50.376;8.762;2023-06-26T13:25:20;28.80;90.40
23703;DHT22;12030;50.376;8.762;2023-06-26T13:27:46;29.00;90.50
23703;DHT22;12030;50.376;8.762;2023-06-26T13:30:12;28.90;88.80
23703;DHT22;12030;50.376;8.762;2023-06-26T13:32:38;28.90;89.80
23703;DHT22;12030;50.376;8.762;2023-06-26T13:35:04;28.60;88.80
23703;DHT22;12030;50.376;8.762;2023-06-26T13:37:31;28.50;90.00
23703;DHT22;12030;50.376;8.762;2023-06-26T13:39:57;28.30;90.00
23703;DHT22;12030;50.376;8.762;2023-06-26T13:42:24;28.30;90.00
23703;DHT22;12030;50.376;8.762;2023-06-26T13:44:50;28.50;88.80
23703;DHT22;12030;50.376;8.762;2023-06-26T13:47:16;28.60;87.20
23703;DHT22;12030;50.376;8.762;2023-06-26T13:49:41;28.30;86.90
23703;DHT22;12030;50.376;8.762;2023-06-26T13:52:07;28.70;89.70
23703;DHT22;12030;50.376;8.762;2023-06-26T13:54:36;28.90;86.40
23703;DHT22;12030;50.376;8.762;2023-06-26T13:57:06;28.80;85.50
23703;DHT22;12030;50.376;8.762;2023-06-26T13:59:32;29.10;87.70
23703;DHT22;12030;50.376;8.762;2023-06-26T14:01:58;29.10;82.30
23703;DHT22;12030;50.376;8.762;2023-06-26T14:04:24;28.80;81.30
23703;DHT22;12030;50.376;8.762;2023-06-26T14:06:50;28.80;84.20
23703;DHT22;12030;50.376;8.762;2023-06-26T14:09:16;28.70;83.30
23703;DHT22;12030;50.376;8.762;2023-06-26T14:11:42;28.20;83.10
23703;DHT22;12030;50.376;8.762;2023-06-26T14:14:08;27.80;83.90
23703;DHT22;12030;50.376;8.762;2023-06-26T14:16:34;27.60;84.40
23703;DHT22;12030;50.376;8.762;2023-06-26T14:18:59;27.70;83.40
23703;DHT22;12030;50.376;8.762;2023-06-26T14:21:25;28.20;82.80
23703;DHT22;12030;50.376;8.762;2023-06-26T14:23:53;28.20;81.80
23703;DHT22;12030;50.376;8.762;2023-06-26T14:26:18;28.50;80.10
23703;DHT22;12030;50.376;8.762;2023-06-26T14:28:44;28.70;77.50
23703;DHT22;12030;50.376;8.762;2023-06-26T14:31:10;28.60;76.70
23703;DHT22;12030;50.376;8.762;2023-06-26T14:33:35;28.60;76.90
23703;DHT22;12030;50.376;8.762;2023-06-26T14:36:02;28.60;76.20
23703;DHT22;12030;50.376;8.762;2023-06-26T14:38:27;28.70;74.30
23703;DHT22;12030;50.376;8.762;2023-06-26T14:40:53;28.60;74.50
23703;DHT22;12030;50.376;8.762;2023-06-26T14:43:19;28.40;74.70
23703;DHT22;12030;50.376;8.762;2023-06-26T14:45:44;27.80;75.00
23703;DHT22;12030;50.376;8.762;2023-06-26T14:48:10;27.70;73.20
23703;DHT22;12030;50.376;8.762;2023-06-26T14:50:35;27.50;73.60
23703;DHT22;12030;50.376;8.762;2023-06-26T14:53:01;27.60;74.30
23703;DHT22;12030;50.376;8.762;2023-06-26T14:55:26;28.10;74.00
23703;DHT22;12030;50.376;8.762;2023-06-26T14:57:52;28.10;73.00
23703;DHT22;12030;50.376;8.762;2023-06-26T15:00:18;28.60;73.20
23703;DHT22;12030;50.376;8.762;2023-06-26T15:02:43;28.80;72.70
23703;DHT22;12030;50.376;8.762;2023-06-26T15:05:09;28.50;71.70
23703;DHT22;12030;50.376;8.762;2023-06-26T15:07:34;28.70;73.80
23703;DHT22;12030;50.376;8.762;2023-06-26T15:10:00;28.60;70.90
23703;DHT22;12030;50.376;8.762;2023-06-26T15:12:25;28.80;71.20
23703;DHT22;12030;50.376;8.762;2023-06-26T15:14:52;29.00;72.00
23703;DHT22;12030;50.376;8.762;2023-06-26T15:17:18;28.60;70.60
23703;DHT22;12030;50.376;8.762;2023-06-26T15:19:44;28.00;70.70
23703;DHT22;12030;50.376;8.762;2023-06-26T15:22:09;28.30;72.40
23703;DHT22;12030;50.376;8.762;2023-06-26T15:24:35;28.60;71.40
23703;DHT22;12030;50.376;8.762;2023-06-26T15:27:00;27.40;70.60
23703;DHT22;12030;50.376;8.762;2023-06-26T15:29:26;28.80;70.70
23703;DHT22;12030;50.376;8.762;2023-06-26T15:31:52;29.00;72.10
23703;DHT22;12030;50.376;8.762;2023-06-26T15:34:18;29.30;70.30
23703;DHT22;12030;50.376;8.762;2023-06-26T15:36:43;29.30;71.00
23703;DHT22;12030;50.376;8.762;2023-06-26T15:39:09;29.20;67.70
23703;DHT22;12030;50.376;8.762;2023-06-26T15:41:35;29.10;66.70
23703;DHT22;12030;50.376;8.762;2023-06-26T15:44:03;29.20;66.70
23703;DHT22;12030;50.376;8.762;2023-06-26T15:46:29;29.00;67.00